Time;durP1;ratioP1;P1;durP2;ratioP2;P2;SDS_P1;SDS_P2;PMS_P1;PMS_P2;Temp;Humidity;BMP_temperature;BMP_pressure;BME280_temperature;BME280_humidity;BME280_pressure;Samples;Min_cycle;Max_cycle;Signal;HPM_P1;HPM_P2
2021/09/22 00:01:14;;;;;;;17.47;10.77;;;7.90;99.90;;;;;;5008005;28;20454;-58
2021/09/22 00:03:45;;;;;;;17.57;10.80;;;7.80;99.90;;;;;;4997396;28;20867;-58
2021/09/22 00:06:19;;;;;;;17.47;10.27;;;7.80;99.90;;;;;;5002001;28;20431;-58
2021/09/22 00:08:47;;;;;;;16.77;11.00;;;7.80;99.90;;;;;;5006471;28;20855;-57
2021/09/22 00:11:16;;;;;;;16.70;10.80;;;7.80;99.90;;;;;;4993774;28;20419;-58
2021/09/22 00:13:41;;;;;;;19.93;10.37;;;7.80;99.90;;;;;;5008002;28;20442;-58
2021/09/22 00:16:10;;;;;;;16.17;9.87;;;7.80;99.90;;;;;;5004444;28;20436;-58
2021/09/22 00:18:50;;;;;;;17.93;10.43;;;7.80;99.90;;;;;;5001310;28;20201;-59
2021/09/22 00:21:33;;;;;;;14.90;10.43;;;7.80;99.90;;;;;;5006614;28;20467;-58
2021/09/22 00:24:02;;;;;;;24.77;11.63;;;7.80;99.90;;;;;;5008204;28;20446;-58
2021/09/22 00:26:40;;;;;;;15.80;9.33;;;7.80;99.90;;;;;;5006100;28;20419;-58
2021/09/22 00:29:25;;;;;;;21.50;12.00;;;7.70;99.90;;;;;;5005161;28;20459;-56
2021/09/22 00:31:54;;;;;;;19.17;11.60;;;7.70;99.90;;;;;;5004842;28;20439;-58
2021/09/22 00:34:56;;;;;;;16.43;10.90;;;7.60;99.90;;;;;;5007048;28;20530;-59
2021/09/22 00:37:22;;;;;;;19.30;11.57;;;7.60;99.90;;;;;;5005108;28;20451;-59
2021/09/22 00:40:09;;;;;;;21.10;11.00;;;7.60;99.90;;;;;;5005828;28;20485;-58
2021/09/22 00:42:52;;;;;;;18.90;10.70;;;7.60;99.90;;;;;;5008445;28;20207;-58
2021/09/22 00:45:23;;;;;;;21.03;11.10;;;7.60;99.90;;;;;;5004171;28;20435;-57
2021/09/22 00:48:05;;;;;;;17.43;10.57;;;7.60;99.90;;;;;;5006252;28;20431;-56
2021/09/22 00:50:34;;;;;;;17.50;11.70;;;7.60;99.90;;;;;;5005074;28;20464;-58
2021/09/22 00:53:12;;;;;;;22.43;10.37;;;7.60;99.90;;;;;;5005792;28;20565;-58
2021/09/22 00:55:40;;;;;;;21.17;10.97;;;7.50;99.90;;;;;;5007815;28;20927;-59
2021/09/22 00:58:14;;;;;;;19.17;11.57;;;7.50;99.90;;;;;;5007504;28;21229;-58
2021/09/22 01:00:54;;;;;;;19.43;10.73;;;7.50;99.90;;;;;;5006287;28;20722;-58
2021/09/22 01:03:50;;;;;;;18.03;11.20;;;7.50;99.90;;;;;;5008273;28;20782;-58
2021/09/22 01:06:21;;;;;;;17.97;11.73;;;7.50;99.90;;;;;;5002906;28;20425;-59
2021/09/22 01:08:50;;;;;;;17.63;10.83;;;7.50;99.90;;;;;;5007971;28;20507;-58
2021/09/22 01:11:22;;;;;;;19.83;11.53;;;7.50;99.90;;;;;;5006025;28;20424;-57
2021/09/22 01:13:53;;;;;;;15.70;10.33;;;7.50;99.90;;;;;;5011981;28;20904;-57
2021/09/22 01:16:18;;;;;;;19.10;10.60;;;7.50;99.90;;;;;;5011800;28;20450;-58
2021/09/22 01:18:47;;;;;;;19.77;11.10;;;7.40;99.90;;;;;;5011609;28;20962;-58
2021/09/22 01:21:13;;;;;;;16.23;9.80;;;7.40;99.90;;;;;;5011443;28;20259;-58
2021/09/22 01:23:50;;;;;;;15.20;10.37;;;7.40;99.90;;;;;;5013096;28;20987;-58
2021/09/22 01:26:21;;;;;;;14.00;9.20;;;7.30;99.90;;;;;;5013087;28;20164;-58
2021/09/22 01:28:58;;;;;;;17.33;11.30;;;7.30;99.90;;;;;;5014289;28;20466;-58
2021/09/22 01:31:24;;;;;;;15.13;9.50;;;7.30;99.90;;;;;;5011468;28;20434;-59
2021/09/22 01:33:55;;;;;;;14.07;8.43;;;7.20;99.90;;;;;;5011863;28;20502;-57
2021/09/22 01:36:21;;;;;;;15.63;9.40;;;7.20;99.90;;;;;;4993713;28;20833;-58
2021/09/22 01:38:52;;;;;;;14.80;9.30;;;7.20;99.90;;;;;;5011356;28;20439;-58
2021/09/22 01:41:24;;;;;;;13.83;9.17;;;7.10;99.90;;;;;;5009090;28;20556;-58
2021/09/22 01:43:56;;;;;;;14.27;8.90;;;7.10;99.90;;;;;;5011142;28;20411;-58
2021/09/22 01:46:33;;;;;;;14.33;9.63;;;7.10;99.90;;;;;;5010365;28;20782;-57
2021/09/22 01:49:02;;;;;;;13.60;8.80;;;7.00;99.90;;;;;;5009291;28;20446;-58
2021/09/22 01:51:28;;;;;;;14.00;9.00;;;7.00;99.90;;;;;;5010978;28;20437;-58
2021/09/22 01:54:09;;;;;;;16.93;9.30;;;7.00;99.90;;;;;;5001728;28;20510;-58
2021/09/22 01:56:55;;;;;;;15.73;9.03;;;7.00;99.90;;;;;;5010538;28;20205;-60
2021/09/22 01:59:34;;;;;;;11.30;7.83;;;6.90;99.90;;;;;;4992590;28;20832;-58
2021/09/22 02:01:59;;;;;;;23.27;9.10;;;6.90;99.90;;;;;;5023245;28;20838;-58
2021/09/22 02:04:28;;;;;;;22.30;8.30;;;6.80;99.90;;;;;;5011952;28;20466;-60
2021/09/22 02:06:54;;;;;;;20.60;8.57;;;6.80;99.90;;;;;;5011284;28;20235;-58
2021/09/22 02:09:25;;;;;;;16.80;8.73;;;6.80;99.90;;;;;;5003456;28;20727;-58
2021/09/22 02:11:57;;;;;;;13.50;8.20;;;6.70;99.90;;;;;;5011352;28;20165;-59
2021/09/22 02:14:25;;;;;;;17.37;9.03;;;6.80;99.90;;;;;;5010715;28;20427;-59
2021/09/22 02:16:54;;;;;;;20.00;9.43;;;6.80;99.90;;;;;;5002038;28;20434;-59
2021/09/22 02:19:21;;;;;;;24.50;10.37;;;6.70;99.90;;;;;;5003494;28;20466;-58
2021/09/22 02:22:01;;;;;;;25.47;10.00;;;6.70;99.90;;;;;;5010371;28;20407;-58
2021/09/22 02:24:44;;;;;;;15.13;9.23;;;6.70;99.90;;;;;;5011221;28;20416;-59
2021/09/22 02:27:23;;;;;;;20.50;10.10;;;6.70;99.90;;;;;;5008251;28;20442;-58
2021/09/22 02:29:57;;;;;;;20.70;11.60;;;6.80;99.90;;;;;;5010826;28;20438;-57
2021/09/22 02:32:26;;;;;;;22.30;10.80;;;6.80;99.90;;;;;;5009064;28;20970;-59
2021/09/22 02:35:00;;;;;;;24.50;11.30;;;6.90;99.90;;;;;;5009304;28;20407;-58
2021/09/22 02:37:35;;;;;;;39.37;13.03;;;6.90;99.90;;;;;;5009737;28;20553;-59
2021/09/22 02:40:08;;;;;;;25.43;11.40;;;7.00;99.90;;;;;;5007955;28;20501;-56
2021/09/22 02:42:46;;;;;;;30.97;12.07;;;7.00;99.90;;;;;;5009024;28;20429;-58
2021/09/22 02:45:22;;;;;;;24.73;11.93;;;7.00;99.90;;;;;;5004437;28;20427;-59
2021/09/22 02:47:47;;;;;;;32.27;11.27;;;7.00;99.90;;;;;;5006757;28;20427;-59
2021/09/22 02:50:22;;;;;;;31.33;11.07;;;7.00;99.90;;;;;;5008475;28;20943;-57
2021/09/22 02:52:51;;;;;;;28.20;11.23;;;7.00;99.90;;;;;;5010620;28;20180;-58
2021/09/22 02:55:24;;;;;;;43.53;11.50;;;7.00;99.90;;;;;;5008548;28;20423;-58
2021/09/22 02:57:53;;;;;;;23.97;9.33;;;7.00;99.90;;;;;;5008194;28;20533;-59
2021/09/22 03:00:42;;;;;;;110.10;11.80;;;7.00;99.90;;;;;;5008261;28;20463;-58
2021/09/22 03:03:16;;;;;;;21.20;10.70;;;7.00;99.90;;;;;;5009278;28;20452;-58
2021/09/22 03:05:41;;;;;;;24.40;9.40;;;6.90;99.90;;;;;;4984457;28;20432;-59
2021/09/22 03:08:10;;;;;;;33.00;12.37;;;6.90;99.90;;;;;;5010248;28;21023;-58
2021/09/22 03:10:35;;;;;;;56.73;11.67;;;6.90;99.90;;;;;;5006480;28;20180;-58
2021/09/22 03:13:04;;;;;;;41.37;13.03;;;6.80;99.90;;;;;;5009642;28;20438;-58
2021/09/22 03:15:45;;;;;;;32.30;12.70;;;6.80;99.90;;;;;;5009537;28;20184;-58
2021/09/22 03:18:11;;;;;;;31.27;11.70;;;6.80;99.90;;;;;;5008874;28;20442;-58
2021/09/22 03:20:46;;;;;;;26.90;10.20;;;6.80;99.90;;;;;;5001213;28;20510;-58
2021/09/22 03:23:14;;;;;;;23.93;10.70;;;6.80;99.90;;;;;;4992151;28;20169;-59
2021/09/22 03:25:45;;;;;;;39.90;10.60;;;6.70;99.90;;;;;;4984976;28;20504;-58
2021/09/22 03:28:11;;;;;;;63.93;12.93;;;6.70;99.90;;;;;;4998680;28;20455;-58
2021/09/22 03:30:37;;;;;;;48.93;11.77;;;6.70;99.90;;;;;;5007611;28;20426;-58
2021/09/22 03:33:27;;;;;;;45.47;11.20;;;6.70;99.90;;;;;;4991025;28;20653;-58
2021/09/22 03:35:52;;;;;;;75.90;12.30;;;6.70;99.90;;;;;;5019219;28;20431;-58
2021/09/22 03:38:18;;;;;;;44.13;10.73;;;6.60;99.90;;;;;;4980180;28;21018;-58
2021/09/22 03:40:44;;;;;;;51.20;11.60;;;6.50;99.90;;;;;;5006226;28;20271;-56
2021/09/22 03:43:09;;;;;;;51.40;10.90;;;6.50;99.90;;;;;;5007966;28;20510;-58
2021/09/22 03:45:35;;;;;;;58.17;11.70;;;6.50;99.90;;;;;;4988438;28;20184;-58
2021/09/22 03:48:01;;;;;;;37.73;11.17;;;6.40;99.90;;;;;;5008532;28;20177;-58
2021/09/22 03:50:27;;;;;;;34.47;10.03;;;6.40;99.90;;;;;;5010665;28;20184;-57
2021/09/22 03:52:53;;;;;;;24.60;9.50;;;6.40;99.90;;;;;;5008560;28;20200;-57
2021/09/22 03:55:18;;;;;;;24.60;8.97;;;6.40;99.90;;;;;;5002906;28;20493;-54
2021/09/22 03:57:44;;;;;;;30.17;9.93;;;6.50;99.90;;;;;;5005516;28;20196;-55
2021/09/22 04:00:11;;;;;;;18.07;10.70;;;6.50;99.90;;;;;;5003095;28;20204;-54
2021/09/22 04:02:39;;;;;;;15.40;9.63;;;6.50;99.90;;;;;;5010030;28;20669;-56
2021/09/22 04:05:05;;;;;;;22.10;9.80;;;6.50;99.90;;;;;;5005304;28;20481;-57
2021/09/22 04:07:31;;;;;;;39.57;10.73;;;6.60;99.90;;;;;;5003402;28;20419;-58
2021/09/22 04:09:57;;;;;;;30.77;9.23;;;6.60;99.90;;;;;;5003803;28;20485;-59
2021/09/22 04:12:23;;;;;;;25.90;9.23;;;6.60;99.90;;;;;;5003997;28;20226;-55
2021/09/22 04:14:48;;;;;;;18.77;9.33;;;6.60;99.90;;;;;;5005629;28;20180;-57
2021/09/22 04:17:14;;;;;;;22.30;9.27;;;6.60;99.90;;;;;;5007491;28;20227;-60
2021/09/22 04:19:39;;;;;;;18.57;9.33;;;6.60;99.90;;;;;;4979665;28;21123;-59
2021/09/22 04:22:05;;;;;;;27.27;9.97;;;6.60;99.90;;;;;;5006935;28;20173;-59
2021/09/22 04:24:31;;;;;;;60.70;10.83;;;6.60;99.90;;;;;;5005396;28;20198;-58
2021/09/22 04:26:56;;;;;;;23.93;8.90;;;6.60;99.90;;;;;;5004968;28;20203;-60
2021/09/22 04:29:22;;;;;;;129.77;14.50;;;6.50;99.90;;;;;;5004672;28;20204;-60
2021/09/22 04:31:48;;;;;;;63.60;11.70;;;6.50;99.90;;;;;;5004239;28;20692;-60
2021/09/22 04:34:14;;;;;;;31.73;11.67;;;6.50;99.90;;;;;;5002860;28;20210;-58
2021/09/22 04:36:43;;;;;;;51.13;14.67;;;6.50;99.90;;;;;;5006197;28;20183;-59
2021/09/22 04:39:09;;;;;;;93.60;14.67;;;6.40;99.90;;;;;;5001796;28;20188;-59
2021/09/22 04:41:35;;;;;;;50.13;13.50;;;6.40;99.90;;;;;;5001551;28;20431;-60
2021/09/22 04:44:01;;;;;;;57.60;12.70;;;6.30;99.90;;;;;;4999628;28;20426;-58
2021/09/22 04:46:26;;;;;;;30.70;10.30;;;6.30;99.90;;;;;;5005034;28;20180;-58
2021/09/22 04:48:52;;;;;;;21.03;11.47;;;6.30;99.90;;;;;;5007283;28;20247;-59
2021/09/22 04:51:19;;;;;;;44.67;11.47;;;6.30;99.90;;;;;;5013986;28;20653;-59
2021/09/22 04:53:45;;;;;;;25.53;9.13;;;6.20;99.90;;;;;;5005789;28;20177;-59
2021/09/22 04:56:11;;;;;;;27.20;8.53;;;6.20;99.90;;;;;;5007239;28;21025;-59
2021/09/22 04:58:37;;;;;;;38.97;9.00;;;6.20;99.90;;;;;;5008748;28;20506;-59
2021/09/22 05:01:02;;;;;;;13.90;7.73;;;6.20;99.90;;;;;;5011518;28;20665;-59
2021/09/22 05:03:29;;;;;;;19.53;7.77;;;6.20;99.90;;;;;;5010999;28;20560;-59
2021/09/22 05:05:59;;;;;;;13.97;8.37;;;6.10;99.90;;;;;;5012171;28;20202;-59
2021/09/22 05:08:25;;;;;;;22.93;7.83;;;6.10;99.90;;;;;;5001610;28;20478;-58
2021/09/22 05:10:54;;;;;;;38.03;8.70;;;6.10;99.90;;;;;;5014058;28;20978;-59
2021/09/22 05:13:20;;;;;;;26.53;7.57;;;6.10;99.90;;;;;;5004162;28;20629;-60
2021/09/22 05:15:47;;;;;;;18.43;7.93;;;6.10;99.90;;;;;;5005893;28;20569;-58
2021/09/22 05:18:12;;;;;;;11.90;7.63;;;6.00;99.90;;;;;;4986648;28;20807;-56
2021/09/22 05:20:38;;;;;;;11.93;6.90;;;6.00;99.90;;;;;;5006912;28;20466;-59
2021/09/22 05:23:04;;;;;;;11.07;7.50;;;6.00;99.90;;;;;;5010952;28;20326;-59
2021/09/22 05:25:30;;;;;;;26.10;7.80;;;6.00;99.90;;;;;;5010324;28;20195;-58
2021/09/22 05:27:55;;;;;;;38.20;9.50;;;6.10;99.90;;;;;;4993122;28;20181;-59
2021/09/22 05:30:21;;;;;;;48.27;8.13;;;6.00;99.90;;;;;;4975000;28;20173;-59
2021/09/22 05:32:47;;;;;;;81.43;11.83;;;6.00;99.90;;;;;;5005506;28;20181;-60
2021/09/22 05:35:13;;;;;;;18.93;7.93;;;6.00;99.90;;;;;;5010116;28;20419;-57
2021/09/22 05:37:39;;;;;;;32.73;8.97;;;6.00;99.90;;;;;;5007024;28;20431;-60
2021/09/22 05:40:06;;;;;;;66.80;9.47;;;5.90;99.90;;;;;;5010499;28;20454;-57
2021/09/22 05:42:32;;;;;;;15.50;8.67;;;5.90;99.90;;;;;;5012128;28;20656;-59
2021/09/22 05:44:58;;;;;;;13.67;8.07;;;5.90;99.90;;;;;;5011204;28;20412;-58
2021/09/22 05:47:23;;;;;;;16.13;9.13;;;5.90;99.90;;;;;;5011795;28;20169;-59
2021/09/22 05:49:49;;;;;;;37.37;9.87;;;5.90;99.90;;;;;;5010641;28;20227;-59
2021/09/22 05:52:15;;;;;;;14.40;8.37;;;5.90;99.90;;;;;;5022165;28;20576;-59
2021/09/22 05:54:41;;;;;;;33.87;9.93;;;6.00;99.90;;;;;;5011314;28;20168;-59
2021/09/22 05:57:06;;;;;;;27.53;9.90;;;6.00;99.90;;;;;;5017607;28;20509;-58
2021/09/22 05:59:32;;;;;;;76.37;12.27;;;6.00;99.90;;;;;;5030462;28;20469;-59
2021/09/22 06:01:58;;;;;;;27.00;10.13;;;6.00;99.90;;;;;;5030871;28;20717;-59
2021/09/22 06:04:23;;;;;;;29.50;11.17;;;6.00;99.90;;;;;;5030277;28;20178;-58
2021/09/22 06:06:49;;;;;;;76.80;14.30;;;6.10;99.90;;;;;;5018063;28;20172;-59
2021/09/22 06:09:15;;;;;;;37.10;13.73;;;6.10;99.90;;;;;;5016298;28;20210;-58
2021/09/22 06:11:41;;;;;;;42.20;15.43;;;6.10;99.90;;;;;;5011830;28;20549;-60
2021/09/22 06:14:06;;;;;;;46.57;16.67;;;6.10;99.90;;;;;;5010855;28;20204;-59
2021/09/22 06:16:33;;;;;;;42.60;15.97;;;6.10;99.90;;;;;;5013030;28;20709;-59
2021/09/22 06:18:58;;;;;;;35.50;13.70;;;6.20;99.90;;;;;;5030446;28;20184;-58
2021/09/22 06:21:24;;;;;;;39.03;12.60;;;6.20;99.90;;;;;;5017536;28;20422;-59
2021/09/22 06:23:53;;;;;;;31.67;9.30;;;6.20;99.90;;;;;;5018135;28;20203;-59
2021/09/22 06:26:23;;;;;;;20.00;8.93;;;6.30;99.90;;;;;;5018903;28;20196;-57
2021/09/22 06:28:50;;;;;;;18.53;8.27;;;6.30;99.90;;;;;;5009948;28;20435;-59
2021/09/22 06:31:15;;;;;;;14.80;7.50;;;6.30;99.90;;;;;;5009528;28;20427;-59
2021/09/22 06:33:41;;;;;;;17.53;6.80;;;6.30;99.90;;;;;;4993300;28;20659;-58
2021/09/22 06:36:07;;;;;;;13.83;7.30;;;6.20;99.90;;;;;;5004668;28;20411;-59
2021/09/22 06:38:32;;;;;;;15.33;7.13;;;6.30;99.90;;;;;;5002051;28;20197;-57
2021/09/22 06:40:58;;;;;;;18.00;6.37;;;6.30;99.90;;;;;;4992019;28;20200;-59
2021/09/22 06:43:24;;;;;;;11.77;7.07;;;6.30;99.90;;;;;;5029047;28;20179;-59
2021/09/22 06:45:50;;;;;;;10.37;6.93;;;6.30;99.90;;;;;;4991745;28;20204;-58
2021/09/22 06:48:16;;;;;;;9.10;6.63;;;6.40;99.90;;;;;;5009006;28;20245;-59
2021/09/22 06:50:43;;;;;;;12.70;6.97;;;6.40;99.90;;;;;;5021529;28;20206;-59
2021/09/22 06:53:08;;;;;;;12.90;7.50;;;6.50;99.90;;;;;;5029545;28;20419;-59
2021/09/22 06:55:34;;;;;;;10.93;7.60;;;6.60;99.90;;;;;;5009807;28;20439;-59
2021/09/22 06:58:00;;;;;;;13.00;8.10;;;6.60;99.90;;;;;;5009801;28;20570;-59
2021/09/22 07:00:25;;;;;;;19.30;8.90;;;6.70;99.90;;;;;;5010208;28;20203;-58
2021/09/22 07:02:51;;;;;;;16.50;9.77;;;6.80;99.90;;;;;;5010187;28;20546;-59
2021/09/22 07:05:17;;;;;;;12.90;8.17;;;6.90;99.90;;;;;;4998993;28;20177;-59
2021/09/22 07:07:46;;;;;;;14.30;9.30;;;6.90;99.90;;;;;;4988773;28;20181;-58
2021/09/22 07:10:13;;;;;;;15.83;9.47;;;7.10;99.90;;;;;;5008099;28;20212;-59
2021/09/22 07:12:39;;;;;;;18.50;10.70;;;7.10;99.90;;;;;;5010266;28;20419;-59
2021/09/22 07:15:05;;;;;;;15.70;9.50;;;7.20;99.90;;;;;;5015575;28;20430;-58
2021/09/22 07:17:31;;;;;;;15.03;9.47;;;7.30;99.90;;;;;;5021411;28;20195;-59
2021/09/22 07:19:56;;;;;;;13.30;8.97;;;7.40;99.90;;;;;;5008279;28;20470;-58
2021/09/22 07:22:22;;;;;;;15.83;9.53;;;7.50;99.90;;;;;;4992248;28;20811;-58
2021/09/22 07:24:48;;;;;;;15.20;10.10;;;7.60;99.90;;;;;;4980370;28;20268;-60
2021/09/22 07:27:15;;;;;;;20.90;9.80;;;7.70;99.90;;;;;;5010496;28;20185;-59
2021/09/22 07:29:41;;;;;;;17.63;9.93;;;7.80;99.90;;;;;;5009575;28;20972;-59
2021/09/22 07:32:07;;;;;;;18.73;10.60;;;7.90;99.90;;;;;;5010380;28;20463;-59
2021/09/22 07:34:33;;;;;;;18.20;10.33;;;8.00;99.90;;;;;;4992763;28;20176;-59
2021/09/22 07:37:00;;;;;;;17.20;10.03;;;8.10;99.90;;;;;;5010558;28;20773;-59
2021/09/22 07:39:26;;;;;;;18.97;11.90;;;8.20;99.90;;;;;;4986269;28;20563;-59
2021/09/22 07:41:52;;;;;;;26.13;12.90;;;8.40;99.90;;;;;;4991778;28;20430;-58
2021/09/22 07:44:18;;;;;;;26.87;15.00;;;8.50;99.90;;;;;;5007008;28;20300;-59
2021/09/22 07:46:43;;;;;;;26.30;14.90;;;8.60;99.90;;;;;;5008528;28;20180;-58
2021/09/22 07:49:09;;;;;;;26.03;14.53;;;8.70;99.90;;;;;;5004929;28;20204;-58
2021/09/22 07:51:35;;;;;;;27.93;15.67;;;8.90;99.90;;;;;;5008029;28;20260;-58
2021/09/22 07:54:00;;;;;;;27.63;14.90;;;9.00;99.90;;;;;;5010074;28;20704;-59
2021/09/22 07:56:26;;;;;;;31.50;16.60;;;9.10;99.90;;;;;;4990495;28;20202;-57
2021/09/22 07:58:51;;;;;;;25.43;14.90;;;9.30;99.90;;;;;;5007230;28;20201;-52
2021/09/22 08:01:17;;;;;;;26.83;15.77;;;9.50;99.90;;;;;;5007959;28;20630;-57
2021/09/22 08:03:43;;;;;;;23.20;14.27;;;9.60;99.90;;;;;;5012113;28;20190;-54
2021/09/22 08:06:08;;;;;;;28.20;15.47;;;9.70;99.90;;;;;;5008792;28;20661;-54
2021/09/22 08:08:34;;;;;;;19.87;12.67;;;9.90;99.90;;;;;;5015555;28;20266;-53
2021/09/22 08:11:00;;;;;;;20.73;12.73;;;10.00;99.90;;;;;;5006937;28;20529;-57
2021/09/22 08:13:27;;;;;;;27.87;12.50;;;10.10;99.90;;;;;;5006731;28;20274;-58
2021/09/22 08:15:53;;;;;;;21.60;13.47;;;10.30;99.90;;;;;;4999007;28;20185;-58
2021/09/22 08:18:18;;;;;;;25.23;13.83;;;10.40;99.90;;;;;;5001882;28;20502;-58
2021/09/22 08:20:44;;;;;;;20.83;13.47;;;10.50;99.90;;;;;;5001707;28;20266;-59
2021/09/22 08:23:10;;;;;;;23.70;13.07;;;10.60;99.90;;;;;;5002298;28;20192;-58
2021/09/22 08:25:36;;;;;;;21.73;13.40;;;10.70;99.90;;;;;;5009462;28;20183;-58
2021/09/22 08:28:02;;;;;;;27.53;14.50;;;10.80;99.90;;;;;;5005429;28;20466;-59
2021/09/22 08:30:28;;;;;;;19.30;13.50;;;10.90;99.90;;;;;;5008058;28;20435;-59
2021/09/22 08:32:54;;;;;;;22.93;14.70;;;11.00;99.90;;;;;;5008906;28;20410;-59
2021/09/22 08:35:20;;;;;;;23.10;12.93;;;11.10;99.90;;;;;;5010276;28;20176;-59
2021/09/22 08:37:46;;;;;;;21.80;13.73;;;11.30;99.90;;;;;;5011732;28;20275;-57
2021/09/22 08:40:12;;;;;;;20.43;13.37;;;11.40;99.90;;;;;;5014749;28;20208;-59
2021/09/22 08:42:40;;;;;;;21.77;14.10;;;11.60;99.90;;;;;;5021375;28;20419;-59
2021/09/22 08:45:07;;;;;;;19.50;12.93;;;11.70;99.90;;;;;;5025030;28;20954;-60
2021/09/22 08:47:32;;;;;;;23.07;13.10;;;11.80;99.90;;;;;;5008776;28;20445;-58
2021/09/22 08:49:58;;;;;;;20.93;13.00;;;11.90;99.90;;;;;;5006809;28;20590;-59
2021/09/22 08:52:24;;;;;;;18.40;11.70;;;12.00;99.90;;;;;;5008789;28;20940;-60
2021/09/22 08:54:50;;;;;;;18.37;12.43;;;12.10;99.80;;;;;;5008225;28;20180;-59
2021/09/22 08:57:16;;;;;;;20.50;12.23;;;12.10;99.30;;;;;;5008801;28;20415;-60
2021/09/22 08:59:42;;;;;;;17.80;12.30;;;12.20;98.60;;;;;;5009139;28;20196;-59
2021/09/22 09:02:16;;;;;;;22.33;12.10;;;12.30;98.40;;;;;;5027879;28;20160;-59
2021/09/22 09:04:45;;;;;;;20.83;12.10;;;12.40;98.30;;;;;;5003778;28;20423;-56
2021/09/22 09:07:11;;;;;;;24.40;12.50;;;12.50;98.20;;;;;;5009497;28;20493;-59
2021/09/22 09:09:42;;;;;;;25.20;12.87;;;12.70;98.70;;;;;;5007811;28;20484;-59
2021/09/22 09:12:23;;;;;;;18.60;12.63;;;12.80;98.30;;;;;;5008698;28;20417;-59
2021/09/22 09:15:02;;;;;;;18.60;12.27;;;12.90;97.10;;;;;;5012239;28;20567;-59
2021/09/22 09:17:46;;;;;;;17.50;11.57;;;13.00;96.40;;;;;;5006126;28;21029;-59
2021/09/22 09:20:15;;;;;;;19.60;11.80;;;13.20;97.00;;;;;;4995782;28;20480;-59
2021/09/22 09:22:41;;;;;;;17.80;11.57;;;13.30;97.30;;;;;;5010223;28;20408;-58
2021/09/22 09:25:07;;;;;;;21.23;12.10;;;13.50;96.80;;;;;;5009743;28;20415;-59
2021/09/22 09:27:34;;;;;;;14.47;10.80;;;13.60;95.40;;;;;;5008872;28;20500;-59
2021/09/22 09:30:18;;;;;;;16.20;11.43;;;13.70;94.60;;;;;;5003960;28;20622;-57
2021/09/22 09:32:44;;;;;;;14.17;10.70;;;13.90;94.20;;;;;;5011170;28;20427;-58
2021/09/22 09:35:14;;;;;;;16.40;10.47;;;14.00;92.90;;;;;;5012583;28;20492;-59
2021/09/22 09:37:42;;;;;;;14.70;10.23;;;14.10;92.70;;;;;;5020394;28;20226;-59
2021/09/22 09:40:20;;;;;;;17.00;10.47;;;14.20;93.20;;;;;;5007337;28;20501;-60
2021/09/22 09:42:49;;;;;;;18.70;11.00;;;14.40;90.60;;;;;;5012837;28;20407;-59
2021/09/22 09:45:18;;;;;;;14.37;9.80;;;14.40;86.40;;;;;;5019346;28;20504;-59
2021/09/22 09:47:58;;;;;;;15.20;10.30;;;14.50;83.70;;;;;;5012171;28;20503;-59
2021/09/22 09:50:23;;;;;;;15.30;9.73;;;14.60;87.40;;;;;;5049157;22;20540;-60
2021/09/22 09:53:02;;;;;;;13.40;10.20;;;14.70;87.70;;;;;;5029945;28;20434;-59
2021/09/22 09:55:28;;;;;;;14.70;9.77;;;14.80;86.10;;;;;;5028249;28;20616;-60
2021/09/22 09:57:56;;;;;;;16.53;10.30;;;14.90;81.90;;;;;;5030105;28;20442;-62
2021/09/22 10:00:41;;;;;;;14.60;9.87;;;15.00;76.60;;;;;;5028628;28;20458;-59
2021/09/22 10:03:12;;;;;;;15.37;9.10;;;15.10;80.60;;;;;;5027343;28;20438;-59
2021/09/22 10:05:39;;;;;;;12.20;9.30;;;15.10;75.10;;;;;;5030010;28;20422;-60
2021/09/22 10:08:07;;;;;;;13.80;10.17;;;15.10;78.30;;;;;;5030210;28;20489;-59
2021/09/22 10:10:33;;;;;;;13.37;9.20;;;15.10;76.30;;;;;;5029852;28;20461;-59
2021/09/22 10:13:00;;;;;;;12.37;8.33;;;15.20;78.10;;;;;;5029584;28;20484;-59
2021/09/22 10:15:32;;;;;;;9.80;7.40;;;15.30;76.30;;;;;;5030015;28;20726;-60
2021/09/22 10:17:57;;;;;;;10.00;8.07;;;15.40;70.20;;;;;;5020965;28;20425;-62
2021/09/22 10:20:23;;;;;;;10.27;6.80;;;15.50;70.50;;;;;;5029277;28;20815;-61
2021/09/22 10:22:49;;;;;;;10.63;7.63;;;15.60;66.70;;;;;;5030397;28;20237;-60
2021/09/22 10:25:18;;;;;;;11.77;7.50;;;15.70;62.70;;;;;;5029076;28;20264;-59
2021/09/22 10:27:48;;;;;;;9.70;7.70;;;15.80;62.50;;;;;;5025231;28;20176;-61
2021/09/22 10:30:15;;;;;;;9.13;5.87;;;15.90;63.00;;;;;;5022581;28;20463;-63
2021/09/22 10:32:44;;;;;;;11.37;7.47;;;16.00;61.30;;;;;;5027465;28;20469;-58
2021/09/22 10:35:25;;;;;;;11.33;7.57;;;16.20;62.80;;;;;;5025927;28;20426;-61
2021/09/22 10:37:56;;;;;;;8.77;6.43;;;16.30;63.40;;;;;;5026780;28;20418;-60
2021/09/22 10:40:33;;;;;;;9.07;7.13;;;16.40;63.90;;;;;;5028176;28;20954;-63
2021/09/22 10:43:14;;;;;;;10.33;6.40;;;16.50;65.50;;;;;;5021649;28;20521;-64
2021/09/22 10:45:44;;;;;;;8.57;6.33;;;16.70;66.40;;;;;;5027500;28;20450;-60
2021/09/22 10:48:22;;;;;;;10.87;6.80;;;16.70;62.90;;;;;;5007961;28;20500;-62
2021/09/22 10:50:52;;;;;;;8.07;5.67;;;16.70;64.20;;;;;;5027564;28;20531;-58
2021/09/22 10:53:30;;;;;;;5.63;4.90;;;16.80;64.20;;;;;;5025705;28;20431;-60
2021/09/22 10:56:26;;;;;;;9.87;5.53;;;16.80;64.50;;;;;;5025805;28;20422;-60
2021/09/22 10:58:53;;;;;;;7.57;5.30;;;16.90;62.80;;;;;;5011868;28;20798;-60
2021/09/22 11:01:37;;;;;;;8.60;4.77;;;17.00;62.40;;;;;;5029366;28;20462;-60
2021/09/22 11:04:11;;;;;;;6.50;4.90;;;17.10;60.40;;;;;;5023970;28;20415;-59
2021/09/22 11:06:48;;;;;;;6.90;5.37;;;17.30;58.20;;;;;;5025877;28;20449;-59
2021/09/22 11:09:24;;;;;;;8.50;4.67;;;17.40;57.70;;;;;;5027678;28;20438;-60
2021/09/22 11:11:55;;;;;;;6.57;4.70;;;17.60;59.10;;;;;;5029669;28;21156;-60
2021/09/22 11:14:29;;;;;;;7.40;4.80;;;17.80;59.60;;;;;;5026833;28;20915;-61
2021/09/22 11:16:55;;;;;;;5.37;4.00;;;18.00;57.90;;;;;;5026377;28;20501;-58
2021/09/22 11:19:21;;;;;;;7.53;3.83;;;18.10;56.10;;;;;;5023196;28;20450;-62
2021/09/22 11:21:48;;;;;;;4.83;4.17;;;18.20;55.40;;;;;;5027517;28;20434;-61
2021/09/22 11:24:15;;;;;;;5.33;4.27;;;18.30;56.60;;;;;;5026892;28;20939;-62
2021/09/22 11:26:55;;;;;;;6.70;4.07;;;18.40;56.20;;;;;;5027278;28;20418;-59
2021/09/22 11:29:32;;;;;;;4.60;3.90;;;18.50;56.20;;;;;;5024940;28;20449;-61
2021/09/22 11:31:59;;;;;;;3.80;3.50;;;18.60;56.00;;;;;;5020871;28;20383;-59
2021/09/22 11:34:32;;;;;;;4.90;3.87;;;18.80;54.20;;;;;;5026313;28;20438;-62
2021/09/22 11:37:09;;;;;;;4.30;3.83;;;19.00;53.70;;;;;;5027336;28;20426;-61
2021/09/22 11:39:36;;;;;;;4.53;3.70;;;19.20;52.80;;;;;;5019286;28;20473;-62
2021/09/22 11:42:02;;;;;;;4.00;3.63;;;19.30;52.30;;;;;;5027352;28;20419;-59
2021/09/22 11:44:31;;;;;;;4.13;3.70;;;19.40;52.80;;;;;;5024742;28;20513;-59
2021/09/22 11:47:02;;;;;;;5.33;3.87;;;19.40;52.60;;;;;;5027347;28;20418;-59
2021/09/22 11:49:36;;;;;;;4.83;4.27;;;19.40;51.80;;;;;;5026734;28;20512;-59
2021/09/22 11:52:17;;;;;;;5.93;3.60;;;19.40;50.50;;;;;;5027300;28;20434;-63
2021/09/22 11:54:56;;;;;;;4.77;3.00;;;19.30;50.30;;;;;;5020543;28;20517;-63
2021/09/22 11:57:28;;;;;;;4.27;3.50;;;19.40;51.10;;;;;;5025785;28;20423;-60
2021/09/22 11:59:54;;;;;;;4.13;3.73;;;19.50;50.90;;;;;;5021888;28;20477;-59
2021/09/22 12:02:22;;;;;;;4.07;3.67;;;19.50;50.20;;;;;;5025119;28;20547;-63
2021/09/22 12:04:48;;;;;;;4.70;3.23;;;19.60;49.90;;;;;;5022300;28;20854;-59
2021/09/22 12:07:18;;;;;;;6.63;3.50;;;19.80;50.00;;;;;;5027213;28;20507;-59
2021/09/22 12:09:47;;;;;;;4.00;3.60;;;20.00;50.00;;;;;;5020937;28;20689;-58
2021/09/22 12:12:18;;;;;;;6.50;3.70;;;20.20;49.90;;;;;;5021879;28;21008;-61
2021/09/22 12:14:58;;;;;;;4.30;3.57;;;20.20;48.50;;;;;;5017086;28;20441;-60
2021/09/22 12:17:36;;;;;;;4.80;3.43;;;20.20;48.10;;;;;;5019731;28;20448;-62
2021/09/22 12:20:04;;;;;;;3.50;3.10;;;20.10;48.10;;;;;;5022588;28;21072;-63
2021/09/22 12:22:33;;;;;;;3.80;3.40;;;20.00;48.00;;;;;;5024141;28;20446;-63
2021/09/22 12:24:59;;;;;;;3.93;3.33;;;19.90;47.70;;;;;;5024243;28;20449;-59
2021/09/22 12:27:28;;;;;;;3.83;3.50;;;19.90;48.00;;;;;;5028346;28;20434;-59
2021/09/22 12:30:05;;;;;;;3.57;3.27;;;19.90;48.70;;;;;;5023117;28;20595;-62
2021/09/22 12:33:05;;;;;;;5.50;3.33;;;20.00;48.80;;;;;;5022737;28;20442;-59
2021/09/22 12:35:42;;;;;;;9.73;3.47;;;20.20;49.30;;;;;;4999933;28;20537;-58
2021/09/22 12:38:12;;;;;;;3.10;2.80;;;20.40;49.60;;;;;;5022943;28;20787;-59
2021/09/22 12:40:43;;;;;;;3.33;3.03;;;20.70;49.00;;;;;;5005337;28;20490;-59
2021/09/22 12:43:26;;;;;;;3.10;2.80;;;20.80;48.60;;;;;;5028020;28;20771;-61
2021/09/22 12:46:07;;;;;;;3.17;2.87;;;21.00;48.50;;;;;;5026616;28;20418;-60
2021/09/22 12:48:32;;;;;;;3.10;2.80;;;21.30;47.60;;;;;;5025975;28;20465;-59
2021/09/22 12:50:58;;;;;;;3.20;2.57;;;21.40;48.40;;;;;;5001803;28;20881;-62
2021/09/22 12:53:32;;;;;;;6.20;3.13;;;21.50;47.90;;;;;;5028620;28;20251;-57